Terminal Aerodrome Forecast
Issued by NWS Springfield, MO

Home | Current Version | Previous Version | Text Only | Print | Product List | Glossary On
Versions: 1 2 3 4 5 6 7 8 9 10 11 12 13 14 15 16
849
FTUS43 KSGF 151120
TAFSGF
TAF
KSGF 151120Z 1512/1612 33014G23KT P6SM BKN015
     FM151500 34016G25KT P6SM SCT150
     FM152300 34011KT P6SM SKC
     FM160100 34005KT P6SM SKC=

USA.gov is the U.S. government's official web portal to all federal, state and local government web resources and services.